createdAt,value
2023-03-02T00:00:29.392Z,0.68
2023-03-02T00:03:18.432Z,1.58
2023-03-02T00:06:05.215Z,0.77
2023-03-02T00:08:50.545Z,0.63
2023-03-02T00:11:39.087Z,0.98
2023-03-02T00:14:24.729Z,0.80
2023-03-02T00:17:10.760Z,0.63
2023-03-02T00:20:11.745Z,0.80
2023-03-02T00:22:57.264Z,0.50
2023-03-02T00:25:43.075Z,0.90
2023-03-02T00:28:29.750Z,0.65
2023-03-02T00:31:15.990Z,0.70
2023-03-02T00:34:01.457Z,0.80
2023-03-02T00:36:49.483Z,0.73
2023-03-02T00:39:35.061Z,0.98
2023-03-02T00:42:21.707Z,0.50
2023-03-02T00:45:07.712Z,0.73
2023-03-02T00:47:53.086Z,0.73
2023-03-02T00:50:41.131Z,0.95
2023-03-02T00:53:26.828Z,0.90
2023-03-02T00:56:12.351Z,0.82
2023-03-02T00:59:28.450Z,0.82
2023-03-02T01:02:39.114Z,0.85
2023-03-02T01:05:25.007Z,0.98
2023-03-02T01:08:10.516Z,0.95
2023-03-02T01:10:55.795Z,0.85
2023-03-02T01:13:41.214Z,1.05
2023-03-02T01:16:27.231Z,1.00
2023-03-02T01:19:12.384Z,0.93
2023-03-02T01:21:58.268Z,0.63
2023-03-02T01:24:43.793Z,0.47
2023-03-02T01:27:29.195Z,0.73
2023-03-02T01:30:15.133Z,0.85
2023-03-02T01:33:01.855Z,0.63
2023-03-02T01:35:47.734Z,0.90
2023-03-02T01:38:32.942Z,1.08
2023-03-02T01:41:18.405Z,1.40
2023-03-02T01:44:04.167Z,1.35
2023-03-02T01:46:49.920Z,0.77
2023-03-02T01:49:37.645Z,0.90
2023-03-02T01:52:27.162Z,0.98
2023-03-02T01:55:17.124Z,1.10
2023-03-02T01:58:05.496Z,0.60
2023-03-02T02:00:53.248Z,1.25
2023-03-02T02:03:38.742Z,1.80
2023-03-02T02:06:33.000Z,1.00
2023-03-02T02:09:22.716Z,0.82
2023-03-02T02:12:16.454Z,1.70
2023-03-02T02:15:02.863Z,0.80
2023-03-02T02:17:48.643Z,1.15
2023-03-02T02:20:39.829Z,1.30
2023-03-02T02:24:06.861Z,0.88
2023-03-02T02:26:54.757Z,1.35
2023-03-02T02:29:46.100Z,1.08
2023-03-02T02:32:37.389Z,0.77
2023-03-02T02:35:30.438Z,1.10
2023-03-02T02:38:21.296Z,1.27
2023-03-02T02:41:18.123Z,0.50
2023-03-02T02:44:04.183Z,1.02
2023-03-02T02:46:51.442Z,0.60
2023-03-02T02:49:40.589Z,0.70
2023-03-02T02:52:28.999Z,0.80
2023-03-02T02:55:20.407Z,0.75
2023-03-02T02:58:53.680Z,0.80
2023-03-02T03:01:39.933Z,0.63
2023-03-02T03:04:28.975Z,0.52
2023-03-02T03:07:21.491Z,0.57
2023-03-02T03:10:35.196Z,0.50
2023-03-02T03:13:20.726Z,0.40
2023-03-02T03:16:08.351Z,1.23
2023-03-02T03:18:56.366Z,0.50
2023-03-02T03:21:42.282Z,0.55
2023-03-02T03:24:29.944Z,0.68
2023-03-02T03:27:16.863Z,0.60
2023-03-02T03:30:04.336Z,0.40
2023-03-02T03:32:52.070Z,0.38
2023-03-02T03:35:38.746Z,0.50
2023-03-02T03:38:24.442Z,0.50
2023-03-02T03:41:09.797Z,0.50
2023-03-02T03:43:55.606Z,0.35
2023-03-02T03:46:41.056Z,0.30
2023-03-02T03:49:27.413Z,0.30
2023-03-02T03:52:13.756Z,0.20
2023-03-02T03:55:00.991Z,0.25
2023-03-02T03:57:48.182Z,0.95
2023-03-02T04:00:34.097Z,0.30
2023-03-02T04:03:26.138Z,0.47
2023-03-02T04:06:19.011Z,0.40
2023-03-02T04:09:06.515Z,0.50
2023-03-02T04:11:54.789Z,0.63
2023-03-02T04:14:40.980Z,0.65
2023-03-02T04:17:27.578Z,0.50
2023-03-02T04:20:17.689Z,0.40
2023-03-02T04:23:06.290Z,0.60
2023-03-02T04:25:51.693Z,0.40
2023-03-02T04:28:40.069Z,0.50
2023-03-02T04:31:25.525Z,0.35
2023-03-02T04:34:11.271Z,0.50
2023-03-02T04:36:59.856Z,0.32
2023-03-02T04:39:50.231Z,0.55
2023-03-02T04:42:36.181Z,0.70
2023-03-02T04:45:21.463Z,0.20
2023-03-02T04:48:07.790Z,0.40
2023-03-02T04:50:53.199Z,0.43
2023-03-02T04:53:38.920Z,0.50
2023-03-02T04:56:24.803Z,0.30
2023-03-02T04:59:10.312Z,0.20
2023-03-02T05:01:58.907Z,0.30
2023-03-02T05:04:44.637Z,0.40
2023-03-02T05:07:30.586Z,0.57
2023-03-02T05:10:18.711Z,0.40
2023-03-02T05:13:05.897Z,0.40
2023-03-02T05:15:53.034Z,0.60
2023-03-02T05:18:38.364Z,0.45
2023-03-02T05:21:24.579Z,0.40
2023-03-02T05:24:11.258Z,0.40
2023-03-02T05:26:56.707Z,0.30
2023-03-02T05:29:41.943Z,0.43
2023-03-02T05:32:27.929Z,0.57
2023-03-02T05:35:14.301Z,0.55
2023-03-02T05:37:59.854Z,0.50
2023-03-02T05:40:45.740Z,0.65
2023-03-02T05:43:31.053Z,0.45
2023-03-02T05:46:17.562Z,0.60
2023-03-02T05:49:03.071Z,0.60
2023-03-02T05:51:48.389Z,0.50
2023-03-02T05:54:33.796Z,0.68
2023-03-02T05:57:19.247Z,0.32
2023-03-02T06:00:08.487Z,0.55
2023-03-02T06:02:57.802Z,0.38
2023-03-02T06:05:43.215Z,0.50
2023-03-02T06:08:28.892Z,0.50
2023-03-02T06:11:14.289Z,0.60
2023-03-02T06:13:59.712Z,0.88
2023-03-02T06:16:45.079Z,0.35
2023-03-02T06:19:30.298Z,0.70
2023-03-02T06:22:16.043Z,0.85
2023-03-02T06:25:01.612Z,0.98
2023-03-02T06:27:47.334Z,0.55
2023-03-02T06:30:33.036Z,0.65
2023-03-02T06:33:21.248Z,1.17
2023-03-02T06:36:07.045Z,0.80
2023-03-02T06:38:52.481Z,0.60
2023-03-02T06:41:37.985Z,0.60
2023-03-02T06:44:23.375Z,0.60
2023-03-02T06:47:08.752Z,0.55
2023-03-02T06:49:54.042Z,0.55
2023-03-02T06:52:39.514Z,0.50
2023-03-02T06:55:24.814Z,0.47
2023-03-02T06:58:13.276Z,0.40
2023-03-02T07:00:58.892Z,1.30
2023-03-02T07:03:44.628Z,0.40
2023-03-02T07:06:30.254Z,1.83
2023-03-02T07:09:15.897Z,0.68
2023-03-02T07:12:01.478Z,0.60
2023-03-02T07:14:47.020Z,0.35
2023-03-02T07:17:33.960Z,0.80
2023-03-02T07:20:19.869Z,0.63
2023-03-02T07:23:06.484Z,0.70
2023-03-02T07:25:51.700Z,0.57
2023-03-02T07:28:42.157Z,1.00
2023-03-02T07:31:28.130Z,0.98
2023-03-02T07:34:13.658Z,0.93
2023-03-02T07:36:59.447Z,0.90
2023-03-02T07:39:45.104Z,1.08
2023-03-02T07:42:30.391Z,0.73
2023-03-02T07:45:20.705Z,0.80
2023-03-02T07:48:07.346Z,0.90
2023-03-02T07:50:58.130Z,1.48
2023-03-02T07:53:43.400Z,0.90
2023-03-02T07:56:28.911Z,1.13
2023-03-02T07:59:14.897Z,1.15
2023-03-02T08:02:00.436Z,0.65
2023-03-02T08:04:46.451Z,0.88
2023-03-02T08:07:31.763Z,1.50
2023-03-02T08:10:17.561Z,1.20
2023-03-02T08:13:04.842Z,0.70
2023-03-02T08:15:50.445Z,1.20
2023-03-02T08:18:36.465Z,1.08
2023-03-02T08:21:24.441Z,0.47
2023-03-02T08:24:10.390Z,0.63
2023-03-02T08:26:56.101Z,1.00
2023-03-02T08:29:42.016Z,0.85
2023-03-02T08:32:27.565Z,0.70
2023-03-02T08:35:13.230Z,0.98
2023-03-02T08:37:59.814Z,1.00
2023-03-02T08:40:45.391Z,0.63
2023-03-02T08:43:30.875Z,0.90
2023-03-02T08:46:18.724Z,0.70
2023-03-02T08:49:04.138Z,1.23
2023-03-02T08:51:53.541Z,1.08
2023-03-02T08:54:40.776Z,1.83
2023-03-02T08:57:26.487Z,3.97
2023-03-02T09:00:14.912Z,1.75
2023-03-02T09:03:00.261Z,1.58
2023-03-02T09:05:46.429Z,3.80
2023-03-02T09:08:31.983Z,1.90
2023-03-02T09:11:18.044Z,1.17
2023-03-02T09:14:04.407Z,0.90
2023-03-02T09:16:50.004Z,0.90
2023-03-02T09:19:43.971Z,0.80
2023-03-02T09:22:31.349Z,1.40
2023-03-02T09:25:18.800Z,0.80
2023-03-02T09:28:04.570Z,0.90
2023-03-02T09:30:53.408Z,0.70
2023-03-02T09:33:38.733Z,0.52
2023-03-02T09:36:26.139Z,0.82
2023-03-02T09:39:12.654Z,0.98
2023-03-02T09:42:07.516Z,0.50
2023-03-02T09:45:44.204Z,0.90
2023-03-02T09:48:52.520Z,0.63
2023-03-02T09:52:01.327Z,0.63
2023-03-02T09:54:46.809Z,0.75
2023-03-02T09:57:36.282Z,0.88
2023-03-02T10:00:27.744Z,0.70
2023-03-02T10:03:22.227Z,0.47
2023-03-02T10:06:09.383Z,0.75
2023-03-02T10:08:55.488Z,0.50
2023-03-02T10:12:01.983Z,0.68
2023-03-02T10:14:56.957Z,0.55
2023-03-02T10:17:54.992Z,2.08
2023-03-02T10:20:49.232Z,0.85
2023-03-02T10:24:02.413Z,0.82
2023-03-02T10:26:53.515Z,0.30
2023-03-02T10:30:01.192Z,0.98
2023-03-02T10:32:51.700Z,1.10
2023-03-02T10:35:38.346Z,1.38
2023-03-02T10:38:25.638Z,2.55
2023-03-02T10:41:20.468Z,1.13
2023-03-02T10:44:13.549Z,0.90
2023-03-02T10:46:59.493Z,0.55
2023-03-02T10:49:47.509Z,0.75
2023-03-02T10:52:32.926Z,1.90
2023-03-02T10:55:18.452Z,2.03
2023-03-02T10:58:19.147Z,2.35
2023-03-02T11:01:14.516Z,1.13
2023-03-02T11:04:01.772Z,0.40
2023-03-02T11:06:47.102Z,0.80
2023-03-02T11:09:32.375Z,0.45
2023-03-02T11:12:18.133Z,0.52
2023-03-02T11:15:25.229Z,1.40
2023-03-02T11:18:22.598Z,3.38
2023-03-02T11:21:17.621Z,0.63
2023-03-02T11:24:12.609Z,0.80
2023-03-02T11:27:30.142Z,0.95
2023-03-02T11:30:19.592Z,1.50
2023-03-02T11:33:56.159Z,0.52
2023-03-02T11:36:46.098Z,1.73
2023-03-02T11:39:54.618Z,1.42
2023-03-02T11:42:44.837Z,1.55
2023-03-02T11:45:33.308Z,2.22
2023-03-02T11:48:29.243Z,1.65
2023-03-02T11:51:19.771Z,1.08
2023-03-02T11:54:16.190Z,0.60
2023-03-02T11:57:01.798Z,2.33
2023-03-02T11:59:48.497Z,1.25
2023-03-02T12:02:33.938Z,1.30
2023-03-02T12:05:28.719Z,1.98
2023-03-02T12:08:20.144Z,0.98
2023-03-02T12:11:05.582Z,0.52
2023-03-02T12:13:59.962Z,2.17
2023-03-02T12:16:46.101Z,0.77
2023-03-02T12:19:52.825Z,1.00
2023-03-02T12:22:39.082Z,2.10
2023-03-02T12:25:29.296Z,4.07
2023-03-02T12:28:51.918Z,1.27
2023-03-02T12:35:01.432Z,1.10
2023-03-02T12:37:49.856Z,0.88
2023-03-02T12:41:17.600Z,0.70
2023-03-02T12:44:11.783Z,0.75
2023-03-02T12:47:00.628Z,0.55
2023-03-02T12:49:55.198Z,0.63
2023-03-02T12:52:40.863Z,0.60
2023-03-02T12:55:26.251Z,0.63
2023-03-02T12:58:20.533Z,0.32
2023-03-02T13:01:06.602Z,0.80
2023-03-02T13:03:53.231Z,0.65
2023-03-02T13:06:39.727Z,0.60
2023-03-02T13:09:25.316Z,0.95
2023-03-02T13:12:14.582Z,0.40
2023-03-02T13:15:00.743Z,0.30
2023-03-02T13:17:54.403Z,0.82
2023-03-02T13:20:40.575Z,0.40
2023-03-02T13:23:27.470Z,0.70
2023-03-02T13:26:28.981Z,0.47
2023-03-02T13:29:14.760Z,0.32
2023-03-02T13:32:20.794Z,0.60
2023-03-02T13:35:17.216Z,0.50
2023-03-02T13:38:12.937Z,0.85
2023-03-02T13:40:58.657Z,0.40
2023-03-02T13:43:44.175Z,0.68
2023-03-02T13:46:36.317Z,0.80
2023-03-02T13:49:33.862Z,0.57
2023-03-02T13:52:28.251Z,0.63
2023-03-02T13:55:18.990Z,0.38
2023-03-02T13:58:04.357Z,0.77
2023-03-02T14:00:50.815Z,1.13
2023-03-02T14:03:36.494Z,0.60
2023-03-02T14:06:22.168Z,0.82
2023-03-02T14:09:07.489Z,0.75
2023-03-02T14:11:55.928Z,0.80
2023-03-02T14:14:41.503Z,0.68
2023-03-02T14:17:27.050Z,0.80
2023-03-02T14:20:15.646Z,0.70
2023-03-02T14:23:06.911Z,1.05
2023-03-02T14:25:54.155Z,0.77
2023-03-02T14:28:39.850Z,0.60
2023-03-02T14:31:25.322Z,0.80
2023-03-02T14:34:15.567Z,0.60
2023-03-02T14:37:05.076Z,0.65
2023-03-02T14:39:54.322Z,2.15
2023-03-02T14:42:40.683Z,0.98
2023-03-02T14:45:26.000Z,1.55
2023-03-02T14:48:11.406Z,1.35
2023-03-02T14:50:58.747Z,1.10
2023-03-02T14:53:45.496Z,0.88
2023-03-02T14:56:31.733Z,1.77
2023-03-02T14:59:16.999Z,1.40
2023-03-02T15:02:10.442Z,0.90
2023-03-02T15:05:01.244Z,0.82
2023-03-02T15:07:46.747Z,0.63
2023-03-02T15:10:32.526Z,0.95
2023-03-02T15:13:17.953Z,0.98
2023-03-02T15:16:03.316Z,0.90
2023-03-02T15:18:50.199Z,0.80
2023-03-02T15:21:35.727Z,1.20
2023-03-02T15:24:23.385Z,0.80
2023-03-02T15:27:08.838Z,1.25
2023-03-02T15:29:56.593Z,0.93
2023-03-02T15:32:42.275Z,1.15
2023-03-02T15:35:29.406Z,0.57
2023-03-02T15:38:14.810Z,1.23
2023-03-02T15:41:05.784Z,1.00
2023-03-02T15:43:52.845Z,0.88
2023-03-02T15:46:38.211Z,1.50
2023-03-02T15:49:24.958Z,1.30
2023-03-02T15:52:11.670Z,3.72
2023-03-02T15:54:56.942Z,1.60
2023-03-02T15:57:42.403Z,0.73
2023-03-02T16:00:28.025Z,1.00
2023-03-02T16:03:14.752Z,3.45
2023-03-02T16:06:00.765Z,1.58
2023-03-02T16:08:46.146Z,1.55
2023-03-02T16:11:31.470Z,1.60
2023-03-02T16:14:17.258Z,1.27
2023-03-02T16:17:02.799Z,1.38
2023-03-02T16:19:48.453Z,1.30
2023-03-02T16:22:33.767Z,0.77
2023-03-02T16:25:19.145Z,0.70
2023-03-02T16:28:04.706Z,1.20
2023-03-02T16:30:51.388Z,1.70
2023-03-02T16:33:38.206Z,1.00
2023-03-02T16:36:23.801Z,0.85
2023-03-02T16:39:10.231Z,1.55
2023-03-02T16:41:55.931Z,0.90
2023-03-02T16:44:41.268Z,0.93
2023-03-02T16:47:26.940Z,0.80
2023-03-02T16:50:13.713Z,0.77
2023-03-02T16:52:59.413Z,3.20
2023-03-02T16:55:45.015Z,1.70
2023-03-02T16:58:30.234Z,1.17
2023-03-02T17:01:18.283Z,0.98
2023-03-02T17:04:05.807Z,0.65
2023-03-02T17:07:00.490Z,0.60
2023-03-02T17:09:46.774Z,1.08
2023-03-02T17:12:32.342Z,1.73
2023-03-02T17:15:17.879Z,0.93
2023-03-02T17:18:03.507Z,1.33
2023-03-02T17:20:52.908Z,1.20
2023-03-02T17:23:38.327Z,1.20
2023-03-02T17:26:23.769Z,1.50
2023-03-02T17:29:09.061Z,1.70
2023-03-02T17:31:54.687Z,2.88
2023-03-02T17:34:40.251Z,3.50
2023-03-02T17:37:30.170Z,3.03
2023-03-02T17:40:16.889Z,1.90
2023-03-02T17:43:02.599Z,1.98
2023-03-02T17:45:48.195Z,2.10
2023-03-02T17:48:33.572Z,3.08
2023-03-02T17:51:19.470Z,1.40
2023-03-02T17:54:05.294Z,1.50
2023-03-02T17:56:50.718Z,2.25
2023-03-02T17:59:36.256Z,2.90
2023-03-02T18:02:21.777Z,3.47
2023-03-02T18:05:10.139Z,2.30
2023-03-02T18:07:55.459Z,3.00
2023-03-02T18:10:41.103Z,2.65
2023-03-02T18:13:26.875Z,2.50
2023-03-02T18:16:12.367Z,2.45
2023-03-02T18:18:57.856Z,2.75
2023-03-02T18:21:43.267Z,2.40
2023-03-02T18:24:28.750Z,2.30
2023-03-02T18:27:14.199Z,2.80
2023-03-02T18:29:59.537Z,3.17
2023-03-02T18:32:44.993Z,2.60
2023-03-02T18:35:30.202Z,2.13
2023-03-02T18:38:15.612Z,2.50
2023-03-02T18:41:03.627Z,2.50
2023-03-02T18:43:49.800Z,1.70
2023-03-02T18:46:35.201Z,1.92
2023-03-02T18:49:20.811Z,2.00
2023-03-02T18:52:06.968Z,2.83
2023-03-02T18:54:57.463Z,4.07
2023-03-02T18:57:44.596Z,2.60
2023-03-02T19:00:30.393Z,2.30
2023-03-02T19:03:17.420Z,2.13
2023-03-02T19:06:03.756Z,1.63
2023-03-02T19:08:49.664Z,1.60
2023-03-02T19:11:35.374Z,2.13
2023-03-02T19:14:21.165Z,2.45
2023-03-02T19:17:06.983Z,2.33
2023-03-02T19:19:52.259Z,1.75
2023-03-02T19:22:37.677Z,2.47
2023-03-02T19:25:23.108Z,2.22
2023-03-02T19:28:08.901Z,2.92
2023-03-02T19:30:54.192Z,2.63
2023-03-02T19:33:40.460Z,2.80
2023-03-02T19:36:26.122Z,2.60
2023-03-02T19:39:11.791Z,3.70
2023-03-02T19:41:57.145Z,3.35
2023-03-02T19:44:42.706Z,2.83
2023-03-02T19:47:29.787Z,2.80
2023-03-02T19:50:17.976Z,3.08
2023-03-02T19:53:03.691Z,1.90
2023-03-02T19:55:51.392Z,4.00
2023-03-02T19:58:37.454Z,2.63
2023-03-02T20:01:25.827Z,2.03
2023-03-02T20:04:11.221Z,2.20
2023-03-02T20:06:56.680Z,4.45
2023-03-02T20:09:42.612Z,6.22
2023-03-02T20:12:28.276Z,7.25
2023-03-02T20:15:13.572Z,7.35
2023-03-02T20:18:02.584Z,10.95
2023-03-02T20:20:48.603Z,6.95
2023-03-02T20:23:34.228Z,4.38
2023-03-02T20:26:19.732Z,11.93
2023-03-02T20:29:05.702Z,3.17
2023-03-02T20:31:51.155Z,3.72
2023-03-02T20:34:38.756Z,4.38
2023-03-02T20:37:26.100Z,3.13
2023-03-02T20:40:11.885Z,2.22
2023-03-02T20:42:57.080Z,2.03
2023-03-02T20:45:43.133Z,2.40
2023-03-02T20:48:29.075Z,2.28
2023-03-02T20:51:14.624Z,2.35
2023-03-02T20:53:59.982Z,2.50
2023-03-02T20:56:45.392Z,4.57
2023-03-02T20:59:31.679Z,5.53
2023-03-02T21:02:19.253Z,4.80
2023-03-02T21:05:05.863Z,4.82
2023-03-02T21:07:51.873Z,3.33
2023-03-02T21:10:38.716Z,2.85
2023-03-02T21:13:24.581Z,2.30
2023-03-02T21:16:13.234Z,2.45
2023-03-02T21:18:59.078Z,1.70
2023-03-02T21:21:44.668Z,1.60
2023-03-02T21:24:30.119Z,1.77
2023-03-02T21:27:15.568Z,1.33
2023-03-02T21:30:03.419Z,1.88
2023-03-02T21:32:49.459Z,1.52
2023-03-02T21:35:36.040Z,1.88
2023-03-02T21:38:21.255Z,1.80
2023-03-02T21:41:06.726Z,1.52
2023-03-02T21:43:52.146Z,1.90
2023-03-02T21:46:38.158Z,1.83
2023-03-02T21:49:23.677Z,2.17
2023-03-02T21:52:09.076Z,1.77
2023-03-02T21:54:54.700Z,2.60
2023-03-02T21:57:41.155Z,2.25
2023-03-02T22:00:30.619Z,2.97
2023-03-02T22:03:16.700Z,2.47
2023-03-02T22:06:01.908Z,2.78
2023-03-02T22:08:47.851Z,2.70
2023-03-02T22:11:38.405Z,2.97
2023-03-02T22:14:24.102Z,2.65
2023-03-02T22:17:21.787Z,3.22
2023-03-02T22:20:16.615Z,2.47
2023-03-02T22:23:02.414Z,3.67
2023-03-02T22:25:50.960Z,2.50
2023-03-02T22:28:41.012Z,1.80
2023-03-02T22:31:26.929Z,2.38
2023-03-02T22:34:15.732Z,2.50
2023-03-02T22:37:13.668Z,3.03
2023-03-02T22:40:17.107Z,2.38
2023-03-02T22:43:36.262Z,2.08
2023-03-02T22:46:21.918Z,1.67
2023-03-02T22:49:17.603Z,1.25
2023-03-02T22:52:14.023Z,0.95
2023-03-02T22:54:59.476Z,1.10
2023-03-02T22:57:45.043Z,0.77
2023-03-02T23:00:37.685Z,0.70
2023-03-02T23:03:44.628Z,0.75
2023-03-02T23:06:31.676Z,1.10
2023-03-02T23:09:23.060Z,1.02
2023-03-02T23:12:22.085Z,0.80
2023-03-02T23:15:19.326Z,0.77
2023-03-02T23:18:25.184Z,0.95
2023-03-02T23:21:37.623Z,1.10
2023-03-02T23:24:23.131Z,1.90
2023-03-02T23:27:09.664Z,1.95
2023-03-02T23:29:55.055Z,1.20
2023-03-02T23:32:40.533Z,1.60
2023-03-02T23:35:27.137Z,1.60
2023-03-02T23:38:12.660Z,1.10
2023-03-02T23:40:58.420Z,1.00
2023-03-02T23:43:43.725Z,1.35
2023-03-02T23:46:29.804Z,1.17
2023-03-02T23:49:15.842Z,1.02
2023-03-02T23:52:01.580Z,1.42
2023-03-02T23:54:47.357Z,1.63
2023-03-02T23:57:33.081Z,1.40
